Airfield :
LOGIN :

Register | Disclaimer

   EN    FR    IT 

 










Legend :    VFR   Marginal VFR   IFR   Intensive IFR   Very Intensive IFR
Visi :
Ceiling :
>= 8 km
>= 3000ft
5 to 8 km
1000 to 3000 ft
1500m to 5 km
500 to 1000 ft
800 to 1500m
200 to 500 ft
< 800m
< 200 ft
Symbols :   Thunderstorms  Fog  Heavy snow  Heavy precipitations  Wind > 20 kt
SIGMETs :     Misc.  Thunderstorms  Icing  Turbulence  Mountain Waves  Volcanic Ashes







- Airport Elevation : 1496 ft
- IATA code : SBZ


LRSB - Sibiu

CURRENT METAR :
  • 172230Z 26004KT 2000 -SN BR SCT009 OVC024 00/M00 Q1015 R27/29//95

EXPIRED METARs :
  • 172200Z 27004KT 2000 -SN BKN009 OVC024 00/M00 Q1015 R27/29//95
  • 172130Z 27005KT 2000 -SN BKN010 OVC024 00/M00 Q1015 R27/29//95
  • 172100Z 26005KT 2000 -SN BKN010 OVC024 00/M00 Q1015 R27/29//95
  • 172030Z 26005KT 2000 -SN BKN009 OVC025 00/M00 Q1015 R27/29//95
  • 172000Z 26005KT 2000 -SN OVC008 00/M00 Q1015 R27/29//95

TAF TAF LRSB
Valid from the 17 at 18:00 until the 18 at 18:00 UTC


171700Z 1718/1818 31008KT 3000 -SN BR BKN010 OVC020
TEMPO 1719/1722 1500 SN BR BKN005 OVC020
BECMG 1808/1810 9999 NSW SCT015 BKN040
TEMPO 1810/1818 5000 -SN BR BKN010 OVC030
No reported NOTAMs for that airfield.



MET'MAP, your aeronautical weather chart ! - Copyright ORBIFLY December 2007 - Disclaimer

ORBIFLY MET'MAP TEAM :

Programming & Development : Alexandra Zaïnal
Concept & Development : Baudouin d'Aumeries
Co-Development & Prog : Marc-Olivier Méhu
Technical & hardware support : Manuel Goepfert

Contact : metmap@orbifly.com




SOURCES & CREDITS :

   NOAA